sensor_id;sensor_type;location;lat;lon;timestamp;P1;durP1;ratioP1;P2;durP2;ratioP2
79229;SDS011;68663;49.122;17.544;2023-04-25T00:00:56;2.95;;;2.65;;
79229;SDS011;68663;49.122;17.544;2023-04-25T00:03:21;3.33;;;2.67;;
79229;SDS011;68663;49.122;17.544;2023-04-25T00:05:50;5.18;;;2.88;;
79229;SDS011;68663;49.122;17.544;2023-04-25T00:08:16;2.70;;;2.40;;
79229;SDS011;68663;49.122;17.544;2023-04-25T00:10:42;5.20;;;2.72;;
79229;SDS011;68663;49.122;17.544;2023-04-25T00:13:07;3.58;;;3.00;;
79229;SDS011;68663;49.122;17.544;2023-04-25T00:15:33;2.45;;;2.17;;
79229;SDS011;68663;49.122;17.544;2023-04-25T00:18:00;3.53;;;2.50;;
79229;SDS011;68663;49.122;17.544;2023-04-25T00:20:26;5.28;;;2.38;;
79229;SDS011;68663;49.122;17.544;2023-04-25T00:22:51;3.40;;;2.50;;
79229;SDS011;68663;49.122;17.544;2023-04-25T00:25:20;3.63;;;2.42;;
79229;SDS011;68663;49.122;17.544;2023-04-25T00:27:46;3.30;;;2.70;;
79229;SDS011;68663;49.122;17.544;2023-04-25T00:30:11;3.50;;;2.40;;
79229;SDS011;68663;49.122;17.544;2023-04-25T00:32:37;3.08;;;2.78;;
79229;SDS011;68663;49.122;17.544;2023-04-25T00:35:03;3.20;;;2.40;;
79229;SDS011;68663;49.122;17.544;2023-04-25T00:37:28;2.80;;;2.47;;
79229;SDS011;68663;49.122;17.544;2023-04-25T00:39:54;2.85;;;2.33;;
79229;SDS011;68663;49.122;17.544;2023-04-25T00:42:21;4.97;;;2.47;;
79229;SDS011;68663;49.122;17.544;2023-04-25T00:44:46;4.35;;;2.80;;
79229;SDS011;68663;49.122;17.544;2023-04-25T00:47:12;3.22;;;2.30;;
79229;SDS011;68663;49.122;17.544;2023-04-25T00:49:38;2.63;;;2.20;;
79229;SDS011;68663;49.122;17.544;2023-04-25T00:52:03;3.53;;;2.67;;
79229;SDS011;68663;49.122;17.544;2023-04-25T00:54:29;3.13;;;2.65;;
79229;SDS011;68663;49.122;17.544;2023-04-25T00:56:55;2.88;;;2.60;;
79229;SDS011;68663;49.122;17.544;2023-04-25T00:59:21;2.30;;;2.10;;
79229;SDS011;68663;49.122;17.544;2023-04-25T01:01:46;2.60;;;2.35;;
79229;SDS011;68663;49.122;17.544;2023-04-25T01:04:12;2.70;;;2.30;;
79229;SDS011;68663;49.122;17.544;2023-04-25T01:06:38;3.33;;;2.40;;
79229;SDS011;68663;49.122;17.544;2023-04-25T01:09:03;4.20;;;2.30;;
79229;SDS011;68663;49.122;17.544;2023-04-25T01:11:30;2.50;;;2.22;;
79229;SDS011;68663;49.122;17.544;2023-04-25T01:13:55;2.67;;;2.42;;
79229;SDS011;68663;49.122;17.544;2023-04-25T01:16:21;2.90;;;2.38;;
79229;SDS011;68663;49.122;17.544;2023-04-25T01:18:49;2.58;;;2.35;;
79229;SDS011;68663;49.122;17.544;2023-04-25T01:21:15;2.35;;;1.90;;
79229;SDS011;68663;49.122;17.544;2023-04-25T01:23:41;3.35;;;2.40;;
79229;SDS011;68663;49.122;17.544;2023-04-25T01:26:08;3.75;;;2.33;;
79229;SDS011;68663;49.122;17.544;2023-04-25T01:28:35;2.65;;;2.13;;
79229;SDS011;68663;49.122;17.544;2023-04-25T01:31:01;2.90;;;2.30;;
79229;SDS011;68663;49.122;17.544;2023-04-25T01:33:27;2.47;;;2.05;;
79229;SDS011;68663;49.122;17.544;2023-04-25T01:35:52;5.28;;;2.30;;
79229;SDS011;68663;49.122;17.544;2023-04-25T01:38:18;3.65;;;2.58;;
79229;SDS011;68663;49.122;17.544;2023-04-25T01:40:43;3.10;;;2.50;;
79229;SDS011;68663;49.122;17.544;2023-04-25T01:43:10;3.08;;;2.10;;
79229;SDS011;68663;49.122;17.544;2023-04-25T01:45:43;2.30;;;1.92;;
79229;SDS011;68663;49.122;17.544;2023-04-25T01:48:09;2.15;;;1.92;;
79229;SDS011;68663;49.122;17.544;2023-04-25T01:50:37;2.40;;;2.20;;
79229;SDS011;68663;49.122;17.544;2023-04-25T01:53:03;2.80;;;2.10;;
79229;SDS011;68663;49.122;17.544;2023-04-25T01:55:29;3.20;;;2.30;;
79229;SDS011;68663;49.122;17.544;2023-04-25T01:57:55;2.60;;;2.03;;
79229;SDS011;68663;49.122;17.544;2023-04-25T02:00:20;4.55;;;2.20;;
79229;SDS011;68663;49.122;17.544;2023-04-25T02:02:46;3.20;;;2.40;;
79229;SDS011;68663;49.122;17.544;2023-04-25T02:05:11;2.50;;;2.30;;
79229;SDS011;68663;49.122;17.544;2023-04-25T02:07:37;3.55;;;2.40;;
79229;SDS011;68663;49.122;17.544;2023-04-25T02:10:03;2.88;;;2.17;;
79229;SDS011;68663;49.122;17.544;2023-04-25T02:12:28;2.20;;;2.00;;
79229;SDS011;68663;49.122;17.544;2023-04-25T02:14:54;2.83;;;2.03;;
79229;SDS011;68663;49.122;17.544;2023-04-25T02:17:19;3.08;;;2.33;;
79229;SDS011;68663;49.122;17.544;2023-04-25T02:19:46;2.90;;;2.60;;
79229;SDS011;68663;49.122;17.544;2023-04-25T02:22:12;2.40;;;2.08;;
79229;SDS011;68663;49.122;17.544;2023-04-25T02:24:38;2.90;;;2.42;;
79229;SDS011;68663;49.122;17.544;2023-04-25T02:27:03;2.53;;;2.22;;
79229;SDS011;68663;49.122;17.544;2023-04-25T02:29:29;2.92;;;2.40;;
79229;SDS011;68663;49.122;17.544;2023-04-25T02:31:55;3.00;;;2.00;;
79229;SDS011;68663;49.122;17.544;2023-04-25T02:34:20;2.25;;;2.05;;
79229;SDS011;68663;49.122;17.544;2023-04-25T02:36:46;2.50;;;2.28;;
79229;SDS011;68663;49.122;17.544;2023-04-25T02:39:11;2.45;;;2.03;;
79229;SDS011;68663;49.122;17.544;2023-04-25T02:41:36;3.90;;;2.20;;
79229;SDS011;68663;49.122;17.544;2023-04-25T02:44:02;4.95;;;2.10;;
79229;SDS011;68663;49.122;17.544;2023-04-25T02:46:27;2.00;;;1.77;;
79229;SDS011;68663;49.122;17.544;2023-04-25T02:48:53;2.23;;;1.87;;
79229;SDS011;68663;49.122;17.544;2023-04-25T02:51:18;2.60;;;2.25;;
79229;SDS011;68663;49.122;17.544;2023-04-25T02:53:43;2.70;;;2.15;;
79229;SDS011;68663;49.122;17.544;2023-04-25T02:56:09;4.18;;;2.30;;
79229;SDS011;68663;49.122;17.544;2023-04-25T02:58:34;3.80;;;2.13;;
79229;SDS011;68663;49.122;17.544;2023-04-25T03:00:59;2.53;;;2.15;;
79229;SDS011;68663;49.122;17.544;2023-04-25T03:03:25;2.65;;;2.10;;
79229;SDS011;68663;49.122;17.544;2023-04-25T03:05:51;3.33;;;2.20;;
79229;SDS011;68663;49.122;17.544;2023-04-25T03:08:17;2.30;;;2.00;;
79229;SDS011;68663;49.122;17.544;2023-04-25T03:10:43;2.63;;;2.17;;
79229;SDS011;68663;49.122;17.544;2023-04-25T03:13:08;3.35;;;2.00;;
79229;SDS011;68663;49.122;17.544;2023-04-25T03:15:34;3.40;;;1.90;;
79229;SDS011;68663;49.122;17.544;2023-04-25T03:18:01;2.28;;;1.92;;
79229;SDS011;68663;49.122;17.544;2023-04-25T03:20:26;2.50;;;2.25;;
79229;SDS011;68663;49.122;17.544;2023-04-25T03:22:52;2.45;;;2.08;;
79229;SDS011;68663;49.122;17.544;2023-04-25T03:25:17;2.80;;;2.00;;
79229;SDS011;68663;49.122;17.544;2023-04-25T03:27:43;2.70;;;2.25;;
79229;SDS011;68663;49.122;17.544;2023-04-25T03:30:08;2.40;;;2.03;;
79229;SDS011;68663;49.122;17.544;2023-04-25T03:32:34;2.10;;;1.90;;
79229;SDS011;68663;49.122;17.544;2023-04-25T03:35:00;2.28;;;1.90;;
79229;SDS011;68663;49.122;17.544;2023-04-25T03:37:25;2.75;;;1.90;;
79229;SDS011;68663;49.122;17.544;2023-04-25T03:39:50;2.60;;;2.10;;
79229;SDS011;68663;49.122;17.544;2023-04-25T03:42:16;2.30;;;2.00;;
79229;SDS011;68663;49.122;17.544;2023-04-25T03:44:41;2.53;;;2.00;;
79229;SDS011;68663;49.122;17.544;2023-04-25T03:47:07;2.30;;;2.03;;
79229;SDS011;68663;49.122;17.544;2023-04-25T03:49:32;2.50;;;2.10;;
79229;SDS011;68663;49.122;17.544;2023-04-25T03:51:59;2.22;;;1.92;;
79229;SDS011;68663;49.122;17.544;2023-04-25T03:54:25;2.45;;;2.22;;
79229;SDS011;68663;49.122;17.544;2023-04-25T03:56:50;2.35;;;1.90;;
79229;SDS011;68663;49.122;17.544;2023-04-25T03:59:16;2.60;;;2.00;;
79229;SDS011;68663;49.122;17.544;2023-04-25T04:01:41;3.10;;;1.80;;
79229;SDS011;68663;49.122;17.544;2023-04-25T04:04:06;2.10;;;1.80;;
79229;SDS011;68663;49.122;17.544;2023-04-25T04:06:32;2.75;;;2.03;;
79229;SDS011;68663;49.122;17.544;2023-04-25T04:08:58;2.25;;;2.03;;
79229;SDS011;68663;49.122;17.544;2023-04-25T04:11:23;2.80;;;2.28;;
79229;SDS011;68663;49.122;17.544;2023-04-25T04:13:49;2.30;;;1.77;;
79229;SDS011;68663;49.122;17.544;2023-04-25T04:16:17;2.90;;;2.08;;
79229;SDS011;68663;49.122;17.544;2023-04-25T04:18:44;2.95;;;2.00;;
79229;SDS011;68663;49.122;17.544;2023-04-25T04:21:10;2.42;;;2.10;;
79229;SDS011;68663;49.122;17.544;2023-04-25T04:23:35;4.43;;;2.20;;
79229;SDS011;68663;49.122;17.544;2023-04-25T04:26:01;2.30;;;2.00;;
79229;SDS011;68663;49.122;17.544;2023-04-25T04:28:26;2.25;;;1.77;;
79229;SDS011;68663;49.122;17.544;2023-04-25T04:30:52;3.72;;;2.13;;
79229;SDS011;68663;49.122;17.544;2023-04-25T04:33:18;3.22;;;2.10;;
79229;SDS011;68663;49.122;17.544;2023-04-25T04:35:44;2.05;;;1.77;;
79229;SDS011;68663;49.122;17.544;2023-04-25T04:38:11;2.88;;;1.90;;
79229;SDS011;68663;49.122;17.544;2023-04-25T04:40:39;3.22;;;2.03;;
79229;SDS011;68663;49.122;17.544;2023-04-25T04:43:05;3.00;;;1.92;;
79229;SDS011;68663;49.122;17.544;2023-04-25T04:45:31;4.87;;;2.47;;
79229;SDS011;68663;49.122;17.544;2023-04-25T04:47:56;3.33;;;2.03;;
79229;SDS011;68663;49.122;17.544;2023-04-25T04:50:22;3.50;;;2.25;;
79229;SDS011;68663;49.122;17.544;2023-04-25T04:52:47;4.22;;;2.03;;
79229;SDS011;68663;49.122;17.544;2023-04-25T04:55:12;4.13;;;1.90;;
79229;SDS011;68663;49.122;17.544;2023-04-25T04:57:38;5.37;;;2.10;;
79229;SDS011;68663;49.122;17.544;2023-04-25T05:00:04;5.38;;;1.98;;
79229;SDS011;68663;49.122;17.544;2023-04-25T05:02:35;2.60;;;1.88;;
79229;SDS011;68663;49.122;17.544;2023-04-25T05:05:01;3.35;;;1.77;;
79229;SDS011;68663;49.122;17.544;2023-04-25T05:07:26;10.90;;;2.47;;
79229;SDS011;68663;49.122;17.544;2023-04-25T05:09:51;2.97;;;2.00;;
79229;SDS011;68663;49.122;17.544;2023-04-25T05:12:17;3.22;;;1.70;;
79229;SDS011;68663;49.122;17.544;2023-04-25T05:14:42;2.77;;;2.20;;
79229;SDS011;68663;49.122;17.544;2023-04-25T05:17:08;5.07;;;2.40;;
79229;SDS011;68663;49.122;17.544;2023-04-25T05:19:33;2.85;;;2.30;;
79229;SDS011;68663;49.122;17.544;2023-04-25T05:21:59;4.57;;;1.88;;
79229;SDS011;68663;49.122;17.544;2023-04-25T05:24:25;4.15;;;1.67;;
79229;SDS011;68663;49.122;17.544;2023-04-25T05:26:50;2.20;;;1.75;;
79229;SDS011;68663;49.122;17.544;2023-04-25T05:29:16;3.13;;;2.23;;
79229;SDS011;68663;49.122;17.544;2023-04-25T05:31:41;4.45;;;2.25;;
79229;SDS011;68663;49.122;17.544;2023-04-25T05:34:07;2.90;;;1.92;;
79229;SDS011;68663;49.122;17.544;2023-04-25T05:36:32;4.05;;;1.85;;
79229;SDS011;68663;49.122;17.544;2023-04-25T05:38:57;2.42;;;1.75;;
79229;SDS011;68663;49.122;17.544;2023-04-25T05:41:23;2.65;;;2.05;;
79229;SDS011;68663;49.122;17.544;2023-04-25T05:43:48;3.13;;;2.20;;
79229;SDS011;68663;49.122;17.544;2023-04-25T05:46:14;4.05;;;2.00;;
79229;SDS011;68663;49.122;17.544;2023-04-25T05:48:42;3.47;;;1.80;;
79229;SDS011;68663;49.122;17.544;2023-04-25T05:51:08;3.28;;;1.90;;
79229;SDS011;68663;49.122;17.544;2023-04-25T05:53:33;2.80;;;1.95;;
79229;SDS011;68663;49.122;17.544;2023-04-25T05:55:59;3.00;;;1.83;;
79229;SDS011;68663;49.122;17.544;2023-04-25T05:58:25;4.25;;;1.70;;
79229;SDS011;68663;49.122;17.544;2023-04-25T06:00:50;2.45;;;1.83;;
79229;SDS011;68663;49.122;17.544;2023-04-25T06:03:16;3.03;;;2.25;;
79229;SDS011;68663;49.122;17.544;2023-04-25T06:05:42;2.83;;;1.77;;
79229;SDS011;68663;49.122;17.544;2023-04-25T06:08:08;2.88;;;1.92;;
79229;SDS011;68663;49.122;17.544;2023-04-25T06:10:34;2.97;;;1.85;;
79229;SDS011;68663;49.122;17.544;2023-04-25T06:13:00;3.33;;;1.70;;
79229;SDS011;68663;49.122;17.544;2023-04-25T06:15:26;2.20;;;1.65;;
79229;SDS011;68663;49.122;17.544;2023-04-25T06:17:51;2.58;;;1.70;;
79229;SDS011;68663;49.122;17.544;2023-04-25T06:20:16;3.60;;;2.10;;
79229;SDS011;68663;49.122;17.544;2023-04-25T06:22:42;18.03;;;6.50;;
79229;SDS011;68663;49.122;17.544;2023-04-25T06:25:07;26.13;;;6.85;;
79229;SDS011;68663;49.122;17.544;2023-04-25T06:27:33;21.77;;;7.65;;
79229;SDS011;68663;49.122;17.544;2023-04-25T06:29:59;18.60;;;6.78;;
79229;SDS011;68663;49.122;17.544;2023-04-25T06:32:24;12.10;;;5.20;;
79229;SDS011;68663;49.122;17.544;2023-04-25T06:34:52;12.00;;;4.60;;
79229;SDS011;68663;49.122;17.544;2023-04-25T06:37:19;14.80;;;4.32;;
79229;SDS011;68663;49.122;17.544;2023-04-25T06:39:44;12.10;;;5.13;;
79229;SDS011;68663;49.122;17.544;2023-04-25T06:42:10;15.25;;;4.72;;
79229;SDS011;68663;49.122;17.544;2023-04-25T06:44:35;13.05;;;4.55;;
79229;SDS011;68663;49.122;17.544;2023-04-25T06:47:01;11.05;;;4.60;;
79229;SDS011;68663;49.122;17.544;2023-04-25T06:49:26;8.50;;;4.10;;
79229;SDS011;68663;49.122;17.544;2023-04-25T06:51:52;8.27;;;3.38;;
79229;SDS011;68663;49.122;17.544;2023-04-25T06:54:17;5.70;;;3.25;;
79229;SDS011;68663;49.122;17.544;2023-04-25T06:56:42;10.10;;;3.42;;
79229;SDS011;68663;49.122;17.544;2023-04-25T06:59:08;7.53;;;3.10;;
79229;SDS011;68663;49.122;17.544;2023-04-25T07:01:34;5.82;;;3.97;;
79229;SDS011;68663;49.122;17.544;2023-04-25T07:04:00;4.68;;;3.35;;
79229;SDS011;68663;49.122;17.544;2023-04-25T07:06:25;4.55;;;3.60;;
79229;SDS011;68663;49.122;17.544;2023-04-25T07:08:52;4.45;;;3.60;;
79229;SDS011;68663;49.122;17.544;2023-04-25T07:11:18;4.97;;;3.60;;
79229;SDS011;68663;49.122;17.544;2023-04-25T07:13:43;5.07;;;3.40;;
79229;SDS011;68663;49.122;17.544;2023-04-25T07:16:09;4.40;;;3.08;;
79229;SDS011;68663;49.122;17.544;2023-04-25T07:18:34;4.95;;;2.95;;
79229;SDS011;68663;49.122;17.544;2023-04-25T07:21:00;4.25;;;2.40;;
79229;SDS011;68663;49.122;17.544;2023-04-25T07:23:25;6.05;;;2.72;;
79229;SDS011;68663;49.122;17.544;2023-04-25T07:25:51;3.83;;;2.25;;
79229;SDS011;68663;49.122;17.544;2023-04-25T07:28:16;2.67;;;2.00;;
79229;SDS011;68663;49.122;17.544;2023-04-25T07:30:43;3.33;;;1.90;;
79229;SDS011;68663;49.122;17.544;2023-04-25T07:33:08;3.30;;;1.90;;
79229;SDS011;68663;49.122;17.544;2023-04-25T07:35:34;4.30;;;2.20;;
79229;SDS011;68663;49.122;17.544;2023-04-25T07:37:59;3.13;;;2.40;;
79229;SDS011;68663;49.122;17.544;2023-04-25T07:40:25;3.80;;;2.03;;
79229;SDS011;68663;49.122;17.544;2023-04-25T07:42:50;3.50;;;2.17;;
79229;SDS011;68663;49.122;17.544;2023-04-25T07:45:16;3.72;;;2.10;;
79229;SDS011;68663;49.122;17.544;2023-04-25T07:47:42;3.58;;;1.92;;
79229;SDS011;68663;49.122;17.544;2023-04-25T07:50:07;3.15;;;1.90;;
79229;SDS011;68663;49.122;17.544;2023-04-25T07:52:33;4.75;;;2.30;;
79229;SDS011;68663;49.122;17.544;2023-04-25T07:54:58;2.22;;;1.67;;
79229;SDS011;68663;49.122;17.544;2023-04-25T07:57:24;2.27;;;1.70;;
79229;SDS011;68663;49.122;17.544;2023-04-25T07:59:50;2.97;;;1.75;;
79229;SDS011;68663;49.122;17.544;2023-04-25T08:02:15;3.50;;;1.95;;
79229;SDS011;68663;49.122;17.544;2023-04-25T08:04:40;2.47;;;2.05;;
79229;SDS011;68663;49.122;17.544;2023-04-25T08:07:06;2.40;;;1.80;;
79229;SDS011;68663;49.122;17.544;2023-04-25T08:09:31;3.00;;;1.90;;
79229;SDS011;68663;49.122;17.544;2023-04-25T08:12:00;2.65;;;1.60;;
79229;SDS011;68663;49.122;17.544;2023-04-25T08:14:27;2.90;;;1.90;;
79229;SDS011;68663;49.122;17.544;2023-04-25T08:16:53;7.32;;;1.98;;
79229;SDS011;68663;49.122;17.544;2023-04-25T08:19:19;1.80;;;1.50;;
79229;SDS011;68663;49.122;17.544;2023-04-25T08:21:44;2.10;;;1.52;;
79229;SDS011;68663;49.122;17.544;2023-04-25T08:24:10;3.60;;;1.83;;
79229;SDS011;68663;49.122;17.544;2023-04-25T08:26:35;2.83;;;2.03;;
79229;SDS011;68663;49.122;17.544;2023-04-25T09:02:41;2.17;;;1.58;;
79229;SDS011;68663;49.122;17.544;2023-04-25T09:05:08;4.13;;;1.60;;
79229;SDS011;68663;49.122;17.544;2023-04-25T09:07:37;2.45;;;1.83;;
79229;SDS011;68663;49.122;17.544;2023-04-25T09:10:09;2.83;;;1.73;;
79229;SDS011;68663;49.122;17.544;2023-04-25T09:12:35;3.30;;;1.90;;
79229;SDS011;68663;49.122;17.544;2023-04-25T09:15:08;6.80;;;1.73;;
79229;SDS011;68663;49.122;17.544;2023-04-25T09:17:35;3.13;;;1.70;;
79229;SDS011;68663;49.122;17.544;2023-04-25T09:20:08;4.18;;;1.70;;
79229;SDS011;68663;49.122;17.544;2023-04-25T09:22:38;2.00;;;1.65;;
79229;SDS011;68663;49.122;17.544;2023-04-25T09:25:11;2.10;;;1.50;;
79229;SDS011;68663;49.122;17.544;2023-04-25T09:27:48;4.88;;;1.50;;
79229;SDS011;68663;49.122;17.544;2023-04-25T09:30:16;5.90;;;1.95;;
79229;SDS011;68663;49.122;17.544;2023-04-25T09:32:42;3.28;;;1.70;;
79229;SDS011;68663;49.122;17.544;2023-04-25T09:35:08;3.10;;;1.80;;
79229;SDS011;68663;49.122;17.544;2023-04-25T09:37:34;3.22;;;1.98;;
79229;SDS011;68663;49.122;17.544;2023-04-25T09:40:00;3.72;;;2.17;;
79229;SDS011;68663;49.122;17.544;2023-04-25T09:42:31;6.10;;;1.67;;
79229;SDS011;68663;49.122;17.544;2023-04-25T09:44:59;5.68;;;2.15;;
79229;SDS011;68663;49.122;17.544;2023-04-25T09:53:40;2.65;;;1.90;;
79229;SDS011;68663;49.122;17.544;2023-04-25T09:56:11;2.78;;;1.98;;
79229;SDS011;68663;49.122;17.544;2023-04-25T09:58:38;3.55;;;1.67;;
79229;SDS011;68663;49.122;17.544;2023-04-25T10:01:06;4.03;;;1.77;;
79229;SDS011;68663;49.122;17.544;2023-04-25T10:03:33;1.90;;;1.60;;
79229;SDS011;68663;49.122;17.544;2023-04-25T10:06:01;5.55;;;1.90;;
79229;SDS011;68663;49.122;17.544;2023-04-25T10:08:31;5.05;;;1.58;;
79229;SDS011;68663;49.122;17.544;2023-04-25T10:11:02;3.53;;;1.98;;
79229;SDS011;68663;49.122;17.544;2023-04-25T10:13:32;2.60;;;1.50;;
79229;SDS011;68663;49.122;17.544;2023-04-25T10:15:59;3.35;;;1.90;;
79229;SDS011;68663;49.122;17.544;2023-04-25T10:18:26;5.18;;;1.92;;
79229;SDS011;68663;49.122;17.544;2023-04-25T10:20:56;3.85;;;1.45;;
79229;SDS011;68663;49.122;17.544;2023-04-25T10:23:24;3.17;;;2.00;;
79229;SDS011;68663;49.122;17.544;2023-04-25T10:25:50;3.90;;;2.35;;
79229;SDS011;68663;49.122;17.544;2023-04-25T10:28:17;3.72;;;2.65;;
79229;SDS011;68663;49.122;17.544;2023-04-25T10:31:16;4.03;;;3.00;;
79229;SDS011;68663;49.122;17.544;2023-04-25T10:33:38;10.30;;;2.85;;
79229;SDS011;68663;49.122;17.544;2023-04-25T10:36:17;5.00;;;2.70;;
79229;SDS011;68663;49.122;17.544;2023-04-25T10:38:46;3.53;;;2.90;;
79229;SDS011;68663;49.122;17.544;2023-04-25T10:41:13;6.70;;;3.30;;
79229;SDS011;68663;49.122;17.544;2023-04-25T10:43:39;3.90;;;3.13;;
79229;SDS011;68663;49.122;17.544;2023-04-25T10:46:16;4.63;;;2.90;;
79229;SDS011;68663;49.122;17.544;2023-04-25T10:48:53;5.50;;;3.40;;
79229;SDS011;68663;49.122;17.544;2023-04-25T10:53:48;6.63;;;3.50;;
79229;SDS011;68663;49.122;17.544;2023-04-25T10:56:21;6.63;;;3.78;;
79229;SDS011;68663;49.122;17.544;2023-04-25T10:58:49;6.25;;;3.30;;
79229;SDS011;68663;49.122;17.544;2023-04-25T11:01:15;6.10;;;3.67;;
79229;SDS011;68663;49.122;17.544;2023-04-25T11:03:45;5.00;;;3.25;;
79229;SDS011;68663;49.122;17.544;2023-04-25T11:06:15;4.70;;;2.83;;
79229;SDS011;68663;49.122;17.544;2023-04-25T11:08:57;8.65;;;3.20;;
79229;SDS011;68663;49.122;17.544;2023-04-25T11:13:53;6.75;;;3.42;;
79229;SDS011;68663;49.122;17.544;2023-04-25T11:16:19;5.23;;;3.33;;
79229;SDS011;68663;49.122;17.544;2023-04-25T11:18:44;6.65;;;3.33;;
79229;SDS011;68663;49.122;17.544;2023-04-25T11:21:10;10.48;;;3.50;;
79229;SDS011;68663;49.122;17.544;2023-04-25T11:23:36;6.70;;;3.67;;
79229;SDS011;68663;49.122;17.544;2023-04-25T11:26:02;5.82;;;3.30;;
79229;SDS011;68663;49.122;17.544;2023-04-25T11:28:28;11.00;;;4.68;;
79229;SDS011;68663;49.122;17.544;2023-04-25T11:30:54;8.30;;;4.95;;
79229;SDS011;68663;49.122;17.544;2023-04-25T11:33:24;8.27;;;5.38;;
79229;SDS011;68663;49.122;17.544;2023-04-25T11:35:51;5.82;;;4.25;;
79229;SDS011;68663;49.122;17.544;2023-04-25T11:38:18;5.03;;;3.58;;
79229;SDS011;68663;49.122;17.544;2023-04-25T11:40:44;5.07;;;3.50;;
79229;SDS011;68663;49.122;17.544;2023-04-25T11:43:15;4.55;;;3.08;;
79229;SDS011;68663;49.122;17.544;2023-04-25T11:45:40;4.25;;;3.35;;
79229;SDS011;68663;49.122;17.544;2023-04-25T11:48:06;5.50;;;3.50;;
79229;SDS011;68663;49.122;17.544;2023-04-25T11:50:32;6.57;;;3.20;;
79229;SDS011;68663;49.122;17.544;2023-04-25T11:52:57;4.37;;;2.93;;
79229;SDS011;68663;49.122;17.544;2023-04-25T11:55:22;7.38;;;3.30;;
79229;SDS011;68663;49.122;17.544;2023-04-25T11:57:48;5.95;;;3.97;;
79229;SDS011;68663;49.122;17.544;2023-04-25T12:00:19;4.50;;;2.72;;
79229;SDS011;68663;49.122;17.544;2023-04-25T12:02:46;5.55;;;3.40;;
79229;SDS011;68663;49.122;17.544;2023-04-25T12:05:13;7.80;;;3.40;;
79229;SDS011;68663;49.122;17.544;2023-04-25T12:07:43;3.70;;;2.60;;
79229;SDS011;68663;49.122;17.544;2023-04-25T12:10:09;3.53;;;2.72;;
79229;SDS011;68663;49.122;17.544;2023-04-25T12:12:41;5.00;;;2.90;;
79229;SDS011;68663;49.122;17.544;2023-04-25T12:15:19;6.43;;;2.30;;
79229;SDS011;68663;49.122;17.544;2023-04-25T12:17:50;4.60;;;2.63;;
79229;SDS011;68663;49.122;17.544;2023-04-25T12:20:17;3.60;;;2.40;;
79229;SDS011;68663;49.122;17.544;2023-04-25T12:22:51;3.97;;;2.55;;
79229;SDS011;68663;49.122;17.544;2023-04-25T12:33:22;3.88;;;2.10;;
79229;SDS011;68663;49.122;17.544;2023-04-25T12:37:29;3.25;;;2.05;;
79229;SDS011;68663;49.122;17.544;2023-04-25T12:39:55;2.97;;;2.00;;
79229;SDS011;68663;49.122;17.544;2023-04-25T12:42:21;4.38;;;2.25;;
79229;SDS011;68663;49.122;17.544;2023-04-25T12:44:46;3.50;;;2.30;;
79229;SDS011;68663;49.122;17.544;2023-04-25T12:47:12;3.50;;;2.20;;
79229;SDS011;68663;49.122;17.544;2023-04-25T12:49:37;4.15;;;1.90;;
79229;SDS011;68663;49.122;17.544;2023-04-25T12:52:02;3.55;;;2.83;;
79229;SDS011;68663;49.122;17.544;2023-04-25T12:54:28;2.70;;;1.90;;
79229;SDS011;68663;49.122;17.544;2023-04-25T12:56:53;2.33;;;1.90;;
79229;SDS011;68663;49.122;17.544;2023-04-25T12:59:19;2.42;;;2.15;;
79229;SDS011;68663;49.122;17.544;2023-04-25T13:01:46;2.38;;;1.85;;
79229;SDS011;68663;49.122;17.544;2023-04-25T13:04:11;3.25;;;2.22;;
79229;SDS011;68663;49.122;17.544;2023-04-25T13:06:37;2.72;;;2.00;;
79229;SDS011;68663;49.122;17.544;2023-04-25T13:09:03;2.42;;;1.90;;
79229;SDS011;68663;49.122;17.544;2023-04-25T13:11:28;5.65;;;2.20;;
79229;SDS011;68663;49.122;17.544;2023-04-25T13:13:53;3.13;;;2.00;;
79229;SDS011;68663;49.122;17.544;2023-04-25T13:16:20;3.05;;;1.98;;
79229;SDS011;68663;49.122;17.544;2023-04-25T13:18:48;3.15;;;1.85;;
79229;SDS011;68663;49.122;17.544;2023-04-25T13:21:13;2.40;;;1.90;;
79229;SDS011;68663;49.122;17.544;2023-04-25T13:23:39;3.58;;;2.35;;
79229;SDS011;68663;49.122;17.544;2023-04-25T13:26:06;2.75;;;1.90;;
79229;SDS011;68663;49.122;17.544;2023-04-25T13:28:32;3.42;;;2.13;;
79229;SDS011;68663;49.122;17.544;2023-04-25T13:30:57;2.40;;;2.00;;
79229;SDS011;68663;49.122;17.544;2023-04-25T13:33:23;2.88;;;2.00;;
79229;SDS011;68663;49.122;17.544;2023-04-25T13:35:48;2.85;;;2.10;;
79229;SDS011;68663;49.122;17.544;2023-04-25T13:38:19;2.20;;;1.90;;
79229;SDS011;68663;49.122;17.544;2023-04-25T13:40:49;2.67;;;2.13;;
79229;SDS011;68663;49.122;17.544;2023-04-25T13:43:17;2.55;;;2.17;;
79229;SDS011;68663;49.122;17.544;2023-04-25T13:45:43;2.95;;;2.22;;
79229;SDS011;68663;49.122;17.544;2023-04-25T13:48:08;2.60;;;1.98;;
79229;SDS011;68663;49.122;17.544;2023-04-25T13:50:34;2.78;;;1.77;;
79229;SDS011;68663;49.122;17.544;2023-04-25T13:53:00;4.03;;;1.92;;
79229;SDS011;68663;49.122;17.544;2023-04-25T13:55:25;2.08;;;1.58;;
79229;SDS011;68663;49.122;17.544;2023-04-25T13:57:51;4.13;;;1.70;;
79229;SDS011;68663;49.122;17.544;2023-04-25T14:00:16;2.53;;;1.67;;
79229;SDS011;68663;49.122;17.544;2023-04-25T14:02:42;4.20;;;1.95;;
79229;SDS011;68663;49.122;17.544;2023-04-25T14:05:08;2.15;;;1.75;;
79229;SDS011;68663;49.122;17.544;2023-04-25T14:07:34;3.50;;;2.00;;
79229;SDS011;68663;49.122;17.544;2023-04-25T14:10:00;5.57;;;1.90;;
79229;SDS011;68663;49.122;17.544;2023-04-25T14:12:26;5.63;;;1.90;;
79229;SDS011;68663;49.122;17.544;2023-04-25T14:14:51;3.03;;;2.17;;
79229;SDS011;68663;49.122;17.544;2023-04-25T14:17:18;4.75;;;1.92;;
79229;SDS011;68663;49.122;17.544;2023-04-25T14:19:43;3.83;;;1.70;;
79229;SDS011;68663;49.122;17.544;2023-04-25T14:22:10;3.42;;;2.17;;
79229;SDS011;68663;49.122;17.544;2023-04-25T14:24:36;2.92;;;2.03;;
79229;SDS011;68663;49.122;17.544;2023-04-25T14:27:01;4.60;;;2.40;;
79229;SDS011;68663;49.122;17.544;2023-04-25T14:29:27;5.63;;;2.60;;
79229;SDS011;68663;49.122;17.544;2023-04-25T14:31:52;4.57;;;2.47;;
79229;SDS011;68663;49.122;17.544;2023-04-25T14:34:19;3.75;;;2.10;;
79229;SDS011;68663;49.122;17.544;2023-04-25T14:36:44;6.68;;;2.50;;
79229;SDS011;68663;49.122;17.544;2023-04-25T14:39:10;6.50;;;2.80;;
79229;SDS011;68663;49.122;17.544;2023-04-25T14:41:35;6.93;;;3.13;;
79229;SDS011;68663;49.122;17.544;2023-04-25T14:44:01;5.78;;;2.80;;
79229;SDS011;68663;49.122;17.544;2023-04-25T14:46:26;6.00;;;2.58;;
79229;SDS011;68663;49.122;17.544;2023-04-25T14:48:52;6.22;;;2.65;;
79229;SDS011;68663;49.122;17.544;2023-04-25T14:51:17;8.25;;;3.15;;
79229;SDS011;68663;49.122;17.544;2023-04-25T14:53:43;10.57;;;2.85;;
79229;SDS011;68663;49.122;17.544;2023-04-25T14:56:09;8.20;;;2.80;;
79229;SDS011;68663;49.122;17.544;2023-04-25T14:58:34;3.47;;;2.40;;
79229;SDS011;68663;49.122;17.544;2023-04-25T15:01:00;5.82;;;2.38;;
79229;SDS011;68663;49.122;17.544;2023-04-25T15:03:25;3.78;;;2.15;;
79229;SDS011;68663;49.122;17.544;2023-04-25T15:05:52;5.80;;;2.40;;
79229;SDS011;68663;49.122;17.544;2023-04-25T15:08:20;7.13;;;2.33;;
79229;SDS011;68663;49.122;17.544;2023-04-25T15:10:45;7.68;;;2.63;;
79229;SDS011;68663;49.122;17.544;2023-04-25T15:13:11;8.32;;;2.47;;
79229;SDS011;68663;49.122;17.544;2023-04-25T15:15:36;8.15;;;3.28;;
79229;SDS011;68663;49.122;17.544;2023-04-25T15:18:02;11.90;;;4.10;;
79229;SDS011;68663;49.122;17.544;2023-04-25T15:20:28;9.18;;;3.88;;
79229;SDS011;68663;49.122;17.544;2023-04-25T15:22:53;8.63;;;3.50;;